createdAt,value
2023-03-30T00:01:26.388Z,74.73
2023-03-30T00:04:35.014Z,73.51
2023-03-30T00:07:42.563Z,73.19
2023-03-30T00:10:55.102Z,73.06
2023-03-30T00:14:05.039Z,77.08
2023-03-30T00:17:12.568Z,72.98
2023-03-30T00:20:20.253Z,72.64
2023-03-30T00:23:41.622Z,76.30
2023-03-30T00:26:51.304Z,77.20
2023-03-30T00:30:00.862Z,86.08
2023-03-30T00:33:08.042Z,90.04
2023-03-30T00:36:14.447Z,92.97
2023-03-30T00:39:23.414Z,100.33
2023-03-30T00:42:32.061Z,101.84
2023-03-30T00:45:41.311Z,94.04
2023-03-30T00:48:49.033Z,93.29
2023-03-30T00:51:56.264Z,96.48
2023-03-30T00:55:05.233Z,98.97
2023-03-30T00:58:17.904Z,120.71
2023-03-30T01:01:29.309Z,133.98
2023-03-30T01:04:37.953Z,154.81
2023-03-30T01:07:50.223Z,173.75
2023-03-30T01:10:57.400Z,173.73
2023-03-30T01:14:13.022Z,156.52
2023-03-30T01:17:37.367Z,147.98
2023-03-30T01:21:55.963Z,132.49
2023-03-30T01:25:51.205Z,112.30
2023-03-30T01:29:14.233Z,103.45
2023-03-30T01:33:08.006Z,91.95
2023-03-30T01:36:46.991Z,89.55
2023-03-30T01:40:06.238Z,85.35
2023-03-30T01:43:24.104Z,93.44
2023-03-30T01:46:46.614Z,86.70
2023-03-30T01:50:06.946Z,86.86
2023-03-30T01:53:27.340Z,88.02
2023-03-30T01:56:46.499Z,93.25
2023-03-30T02:00:07.807Z,101.73
2023-03-30T02:03:28.725Z,97.87
2023-03-30T02:06:45.090Z,89.09
2023-03-30T02:09:59.312Z,83.40
2023-03-30T02:13:18.744Z,77.86
2023-03-30T02:16:42.120Z,73.24
2023-03-30T02:19:51.601Z,73.79
2023-03-30T02:22:59.253Z,72.57
2023-03-30T02:26:08.299Z,71.82
2023-03-30T02:29:19.885Z,70.06
2023-03-30T02:32:33.812Z,64.38
2023-03-30T02:36:06.645Z,65.15
2023-03-30T02:39:35.753Z,63.59
2023-03-30T02:43:03.855Z,64.59
2023-03-30T02:46:36.881Z,64.51
2023-03-30T02:50:03.344Z,64.89
2023-03-30T02:53:26.263Z,64.43
2023-03-30T02:56:50.050Z,67.15
2023-03-30T03:00:08.971Z,63.23
2023-03-30T03:03:34.896Z,65.28
2023-03-30T03:06:43.266Z,63.11
2023-03-30T03:09:51.186Z,65.44
2023-03-30T03:12:57.714Z,65.52
2023-03-30T03:16:06.523Z,67.60
2023-03-30T03:19:16.269Z,70.70
2023-03-30T03:22:25.115Z,71.72
2023-03-30T03:25:31.608Z,70.79
2023-03-30T03:28:43.189Z,71.43
2023-03-30T03:31:49.495Z,73.20
2023-03-30T03:34:59.773Z,84.91
2023-03-30T03:38:22.101Z,89.10
2023-03-30T03:41:29.992Z,102.36
2023-03-30T03:44:38.005Z,97.80
2023-03-30T03:47:44.901Z,89.42
2023-03-30T03:51:06.102Z,79.28
2023-03-30T03:54:16.978Z,86.82
2023-03-30T03:57:31.196Z,122.77
2023-03-30T04:00:38.649Z,118.79
2023-03-30T04:03:45.102Z,105.80
2023-03-30T04:06:54.697Z,99.84
2023-03-30T04:10:00.698Z,94.02
2023-03-30T04:13:37.352Z,84.47
2023-03-30T04:17:05.091Z,80.68
2023-03-30T04:20:34.402Z,80.61
2023-03-30T04:24:12.422Z,80.60
2023-03-30T04:27:38.006Z,85.74
2023-03-30T04:31:11.351Z,85.55
2023-03-30T04:34:42.950Z,87.24
2023-03-30T04:38:12.658Z,83.59
2023-03-30T04:41:46.272Z,82.37
2023-03-30T04:45:15.110Z,81.10
2023-03-30T04:48:40.415Z,84.93
2023-03-30T04:51:59.486Z,85.67
2023-03-30T04:55:44.816Z,86.03
2023-03-30T04:59:25.867Z,77.84
2023-03-30T05:02:59.121Z,78.08
2023-03-30T05:06:26.052Z,77.81
2023-03-30T05:10:09.576Z,81.01
2023-03-30T05:13:41.045Z,80.09
2023-03-30T05:17:09.478Z,87.54
2023-03-30T05:20:35.013Z,84.73
2023-03-30T05:23:47.859Z,83.30
2023-03-30T05:27:14.015Z,78.53
2023-03-30T05:30:35.110Z,77.50
2023-03-30T05:34:12.138Z,76.72
2023-03-30T05:37:32.495Z,67.72
2023-03-30T05:41:01.480Z,74.58
2023-03-30T05:44:27.504Z,71.77
2023-03-30T05:48:05.134Z,71.39
2023-03-30T05:51:37.864Z,72.22
2023-03-30T05:54:56.185Z,68.60
2023-03-30T05:58:21.914Z,70.23
2023-03-30T06:01:46.178Z,67.14
2023-03-30T06:04:53.046Z,71.17
2023-03-30T06:08:05.107Z,74.65
2023-03-30T06:11:13.069Z,76.78
2023-03-30T06:14:32.048Z,77.61
2023-03-30T06:18:05.975Z,72.72
2023-03-30T06:21:21.038Z,72.45
2023-03-30T06:24:41.089Z,69.41
2023-03-30T06:27:47.699Z,67.03
2023-03-30T06:31:03.408Z,71.35
2023-03-30T06:34:10.400Z,70.17
2023-03-30T06:37:18.548Z,70.21
2023-03-30T06:40:27.808Z,71.04
2023-03-30T06:43:40.156Z,77.23
2023-03-30T06:46:52.217Z,70.16
2023-03-30T06:50:05.484Z,67.91
2023-03-30T06:53:31.916Z,83.11
2023-03-30T06:56:42.064Z,91.30
2023-03-30T06:59:55.144Z,79.93
2023-03-30T07:03:02.495Z,69.39
2023-03-30T07:06:20.087Z,66.35
2023-03-30T07:09:36.575Z,75.15
2023-03-30T07:12:45.260Z,73.11
2023-03-30T07:15:52.754Z,71.98
2023-03-30T07:18:59.131Z,68.61
2023-03-30T07:22:06.428Z,69.67
2023-03-30T07:25:13.790Z,64.35
2023-03-30T07:28:23.344Z,62.18
2023-03-30T07:31:30.389Z,59.64
2023-03-30T07:34:37.759Z,64.46
2023-03-30T07:37:44.857Z,79.25
2023-03-30T07:40:51.904Z,65.24
2023-03-30T07:44:03.622Z,73.07
2023-03-30T07:47:10.664Z,69.17
2023-03-30T07:50:17.956Z,66.96
2023-03-30T07:53:25.747Z,58.67
2023-03-30T07:56:33.733Z,56.22
2023-03-30T07:59:43.756Z,60.84
2023-03-30T08:03:13.253Z,52.72
2023-03-30T08:06:23.624Z,52.62
2023-03-30T08:09:36.626Z,49.32
2023-03-30T08:12:44.407Z,54.81
2023-03-30T08:15:54.646Z,46.62
2023-03-30T08:19:01.837Z,46.97
2023-03-30T08:22:08.122Z,49.05
2023-03-30T08:25:15.683Z,47.26
2023-03-30T08:28:27.606Z,56.73
2023-03-30T08:31:39.270Z,45.00
2023-03-30T08:34:46.602Z,43.56
2023-03-30T08:37:54.343Z,48.70
2023-03-30T08:41:00.490Z,45.94
2023-03-30T08:44:26.343Z,51.20
2023-03-30T08:47:42.444Z,47.47
2023-03-30T08:51:09.561Z,50.12
2023-03-30T08:54:29.992Z,50.56
2023-03-30T08:57:55.998Z,46.47
2023-03-30T09:01:26.556Z,48.35
2023-03-30T09:05:05.323Z,48.40
2023-03-30T09:08:23.292Z,49.35
2023-03-30T09:11:43.319Z,45.45
2023-03-30T09:14:57.065Z,43.86
2023-03-30T09:18:18.472Z,43.84
2023-03-30T09:21:35.046Z,44.56
2023-03-30T09:24:42.651Z,47.61
2023-03-30T09:28:05.655Z,43.42
2023-03-30T09:31:22.189Z,45.50
2023-03-30T09:34:42.290Z,44.62
2023-03-30T09:37:51.671Z,44.75
2023-03-30T09:41:21.480Z,45.29
2023-03-30T09:44:40.126Z,47.20
2023-03-30T09:47:47.064Z,47.27
2023-03-30T09:50:54.054Z,45.12
2023-03-30T09:54:10.889Z,44.22
2023-03-30T09:57:32.197Z,44.62
2023-03-30T10:00:39.633Z,49.63
2023-03-30T10:03:55.587Z,53.75
2023-03-30T10:07:09.821Z,46.54
2023-03-30T10:10:38.805Z,45.71
2023-03-30T10:13:46.918Z,44.58
2023-03-30T10:16:53.947Z,41.76
2023-03-30T10:20:25.584Z,41.96
2023-03-30T10:23:40.239Z,44.00
2023-03-30T10:26:56.460Z,40.08
2023-03-30T10:30:14.244Z,35.80
2023-03-30T10:33:20.766Z,36.42
2023-03-30T10:36:36.246Z,40.64
2023-03-30T10:39:46.262Z,31.79
2023-03-30T10:43:00.794Z,39.36
2023-03-30T10:46:19.453Z,41.84
2023-03-30T10:49:49.055Z,40.76
2023-03-30T10:53:12.487Z,44.06
2023-03-30T10:56:40.736Z,39.14
2023-03-30T11:00:28.628Z,42.55
2023-03-30T11:03:37.199Z,41.80
2023-03-30T11:06:46.676Z,41.01
2023-03-30T11:10:07.832Z,45.19
2023-03-30T11:13:24.547Z,42.30
2023-03-30T11:16:47.997Z,39.17
2023-03-30T11:20:08.046Z,44.57
2023-03-30T11:23:29.375Z,36.97
2023-03-30T11:26:44.798Z,34.79
2023-03-30T11:30:03.250Z,32.78
2023-03-30T11:33:30.366Z,32.63
2023-03-30T11:36:51.876Z,35.55
2023-03-30T11:40:11.597Z,31.57
2023-03-30T11:43:27.484Z,32.86
2023-03-30T11:46:49.166Z,36.25
2023-03-30T11:50:26.516Z,32.44
2023-03-30T11:53:51.623Z,32.94
2023-03-30T11:57:18.293Z,34.60
2023-03-30T12:00:57.404Z,38.31
2023-03-30T12:04:18.033Z,52.06
2023-03-30T12:07:43.172Z,36.67
2023-03-30T12:10:58.986Z,40.92
2023-03-30T12:14:08.943Z,71.12
2023-03-30T12:17:37.695Z,121.25
2023-03-30T12:21:23.945Z,103.68
2023-03-30T12:24:41.866Z,82.18
2023-03-30T12:28:15.191Z,51.86
2023-03-30T12:31:22.305Z,63.96
2023-03-30T12:34:38.290Z,86.56
2023-03-30T12:37:50.597Z,100.22
2023-03-30T12:41:14.871Z,100.78
2023-03-30T12:44:46.764Z,88.85
2023-03-30T12:48:21.118Z,80.33
2023-03-30T12:51:56.091Z,72.67
2023-03-30T12:55:42.875Z,93.38
2023-03-30T12:59:30.346Z,73.93
2023-03-30T13:03:07.748Z,93.00
2023-03-30T13:06:30.202Z,86.86
2023-03-30T13:10:04.857Z,81.77
2023-03-30T13:13:47.148Z,107.65
2023-03-30T13:17:18.045Z,128.67
2023-03-30T13:20:33.041Z,147.78
2023-03-30T13:23:42.371Z,132.21
2023-03-30T13:26:51.212Z,129.20
2023-03-30T13:30:09.573Z,92.09
2023-03-30T13:33:27.165Z,80.41
2023-03-30T13:36:43.473Z,83.15
2023-03-30T13:40:07.734Z,89.47
2023-03-30T13:43:33.875Z,83.23
2023-03-30T13:46:55.630Z,69.29
2023-03-30T13:50:08.393Z,93.33
2023-03-30T13:53:19.523Z,87.81
2023-03-30T13:56:30.082Z,102.31
2023-03-30T13:59:41.218Z,105.91
2023-03-30T14:02:50.736Z,121.19
2023-03-30T14:05:57.477Z,173.47
2023-03-30T14:09:16.322Z,168.82
2023-03-30T14:12:23.584Z,160.87
2023-03-30T14:15:40.415Z,161.56
2023-03-30T14:18:49.855Z,162.77
2023-03-30T14:22:05.387Z,130.28
2023-03-30T14:25:36.559Z,141.74
2023-03-30T14:28:44.513Z,135.90
2023-03-30T14:32:07.289Z,133.64
2023-03-30T14:35:22.193Z,149.66
2023-03-30T14:38:35.058Z,187.02
2023-03-30T14:41:42.496Z,217.84
2023-03-30T14:44:56.338Z,217.15
2023-03-30T14:48:03.631Z,196.08
2023-03-30T14:51:28.446Z,193.80
2023-03-30T14:54:36.517Z,136.97
2023-03-30T14:57:47.107Z,105.80
2023-03-30T15:01:00.881Z,113.41
2023-03-30T15:04:20.525Z,124.67
2023-03-30T15:07:35.005Z,108.09
2023-03-30T15:10:55.143Z,101.65
2023-03-30T15:14:10.633Z,96.89
2023-03-30T15:17:26.831Z,93.14
2023-03-30T15:20:35.820Z,95.23
2023-03-30T15:23:51.488Z,113.44
2023-03-30T15:27:12.115Z,111.49
2023-03-30T15:30:46.865Z,116.02
2023-03-30T15:33:57.735Z,128.81
2023-03-30T15:37:08.573Z,136.39
2023-03-30T15:40:42.644Z,145.12
2023-03-30T15:44:08.150Z,127.80
2023-03-30T15:47:22.745Z,132.01
2023-03-30T15:50:30.229Z,149.97
2023-03-30T15:53:49.905Z,158.43
2023-03-30T15:57:13.394Z,192.67
2023-03-30T16:00:25.966Z,142.58
2023-03-30T16:03:42.423Z,143.66
2023-03-30T16:06:55.671Z,129.34
2023-03-30T16:10:02.000Z,146.27
2023-03-30T16:13:15.520Z,118.45
2023-03-30T16:16:27.923Z,115.55
2023-03-30T16:19:34.871Z,126.37
2023-03-30T16:22:50.065Z,121.11
2023-03-30T16:26:18.565Z,130.55
2023-03-30T16:29:34.434Z,136.50
2023-03-30T16:32:53.206Z,139.61
2023-03-30T16:36:09.382Z,144.04
2023-03-30T16:39:31.448Z,155.50
2023-03-30T16:42:38.736Z,165.76
2023-03-30T16:45:48.692Z,165.29
2023-03-30T16:48:54.916Z,176.41
2023-03-30T16:52:02.448Z,182.92
2023-03-30T16:55:13.316Z,187.14
2023-03-30T16:58:20.275Z,194.48
2023-03-30T17:01:31.961Z,258.41
2023-03-30T17:04:38.881Z,331.32
2023-03-30T17:07:46.206Z,283.86
2023-03-30T17:10:56.703Z,242.60
2023-03-30T17:14:02.730Z,208.83
2023-03-30T17:17:31.418Z,215.91
2023-03-30T17:21:03.532Z,221.34
2023-03-30T17:24:16.623Z,249.24
2023-03-30T17:27:27.257Z,261.37
2023-03-30T17:30:40.733Z,228.82
2023-03-30T17:34:03.889Z,214.05
2023-03-30T17:37:12.521Z,248.00
2023-03-30T17:40:31.543Z,257.30
2023-03-30T17:43:38.453Z,258.96
2023-03-30T17:46:45.000Z,203.36
2023-03-30T17:49:54.920Z,163.04
2023-03-30T17:53:05.161Z,192.16
2023-03-30T17:56:25.651Z,185.38
2023-03-30T17:59:31.818Z,156.64
2023-03-30T18:02:38.802Z,148.25
2023-03-30T18:05:49.076Z,148.69
2023-03-30T18:08:56.113Z,141.28
2023-03-30T18:12:02.284Z,139.11
2023-03-30T18:15:10.848Z,145.10
2023-03-30T18:18:25.455Z,148.92
2023-03-30T18:21:42.192Z,147.35
2023-03-30T18:24:55.746Z,145.11
2023-03-30T18:28:03.445Z,169.77
2023-03-30T18:31:09.762Z,179.42
2023-03-30T18:34:24.904Z,184.08
2023-03-30T18:37:33.601Z,173.58
2023-03-30T18:40:45.465Z,183.05
2023-03-30T18:43:51.564Z,184.61
2023-03-30T18:46:58.746Z,173.47
2023-03-30T18:50:18.342Z,194.12
2023-03-30T18:53:30.844Z,205.26
2023-03-30T18:56:38.175Z,216.58
2023-03-30T18:59:57.207Z,206.97
2023-03-30T19:03:06.617Z,214.15
2023-03-30T19:06:20.448Z,223.70
2023-03-30T19:09:42.116Z,221.59
2023-03-30T19:12:53.813Z,204.84
2023-03-30T19:16:05.259Z,190.88
2023-03-30T19:19:15.526Z,189.19
2023-03-30T19:22:21.925Z,193.38
2023-03-30T19:25:34.478Z,212.51
2023-03-30T19:28:54.229Z,231.51
2023-03-30T19:32:02.509Z,245.22
2023-03-30T19:35:10.827Z,270.70
2023-03-30T19:38:25.247Z,280.78
2023-03-30T19:41:44.739Z,264.86
2023-03-30T19:44:51.553Z,274.46
2023-03-30T19:47:57.826Z,268.84
2023-03-30T19:51:05.107Z,254.23
2023-03-30T19:54:11.560Z,200.48
2023-03-30T19:57:28.415Z,190.39
2023-03-30T20:00:35.273Z,176.74
2023-03-30T20:03:42.173Z,192.93
2023-03-30T20:06:48.659Z,213.10
2023-03-30T20:09:55.557Z,209.12
2023-03-30T20:13:04.197Z,204.98
2023-03-30T20:16:12.529Z,185.87
2023-03-30T20:19:29.365Z,188.19
2023-03-30T20:22:42.646Z,196.82
2023-03-30T20:25:50.885Z,201.91
2023-03-30T20:29:01.293Z,208.47
2023-03-30T20:32:08.029Z,215.24
2023-03-30T20:35:16.641Z,207.39
2023-03-30T20:38:23.456Z,201.92
2023-03-30T20:41:38.257Z,204.45
2023-03-30T20:44:50.552Z,218.05
2023-03-30T20:47:57.777Z,226.32
2023-03-30T20:51:05.475Z,242.83
2023-03-30T20:54:12.581Z,213.74
2023-03-30T20:57:18.873Z,204.71
2023-03-30T21:00:28.950Z,197.00
2023-03-30T21:03:35.701Z,202.64
2023-03-30T21:06:43.124Z,196.19
2023-03-30T21:09:49.498Z,199.52
2023-03-30T21:12:56.508Z,233.82
2023-03-30T21:16:12.991Z,240.52
2023-03-30T21:19:19.945Z,253.37
2023-03-30T21:22:26.522Z,242.07
2023-03-30T21:25:33.928Z,246.76
2023-03-30T21:28:42.099Z,256.54
2023-03-30T21:31:54.632Z,233.85
2023-03-30T21:35:00.800Z,229.03
2023-03-30T21:38:16.661Z,231.63
2023-03-30T21:41:24.532Z,241.26
2023-03-30T21:44:45.236Z,250.23
2023-03-30T21:47:54.463Z,252.77
2023-03-30T21:51:05.082Z,227.51
2023-03-30T21:54:12.235Z,230.10
2023-03-30T21:57:19.289Z,247.45
2023-03-30T22:00:28.123Z,259.65
2023-03-30T22:03:40.978Z,255.59
2023-03-30T22:06:48.061Z,242.14
2023-03-30T22:09:54.863Z,259.32
2023-03-30T22:13:00.931Z,240.40
2023-03-30T22:16:16.691Z,217.05
2023-03-30T22:19:26.542Z,215.94
2023-03-30T22:22:34.886Z,199.85
2023-03-30T22:25:41.411Z,191.36
2023-03-30T22:28:48.323Z,187.66
2023-03-30T22:31:56.307Z,189.67
2023-03-30T22:35:06.433Z,190.16
2023-03-30T22:38:14.443Z,187.60
2023-03-30T22:41:25.090Z,191.30
2023-03-30T22:44:31.010Z,192.83
2023-03-30T22:47:37.940Z,203.23
2023-03-30T22:50:47.182Z,199.96
2023-03-30T22:53:54.027Z,207.07
2023-03-30T22:57:01.052Z,210.80
2023-03-30T23:00:26.764Z,219.03
2023-03-30T23:03:33.097Z,217.57
2023-03-30T23:06:43.817Z,219.18
2023-03-30T23:09:51.016Z,211.08
2023-03-30T23:12:58.221Z,216.04
2023-03-30T23:16:08.815Z,216.57
2023-03-30T23:19:16.421Z,218.66
2023-03-30T23:22:32.940Z,223.62
2023-03-30T23:25:42.301Z,214.53
2023-03-30T23:28:48.452Z,217.24
2023-03-30T23:32:05.869Z,221.34
2023-03-30T23:35:13.009Z,225.09
2023-03-30T23:38:24.068Z,228.70
2023-03-30T23:41:30.140Z,231.06
2023-03-30T23:44:37.262Z,238.19
2023-03-30T23:47:44.205Z,233.44
2023-03-30T23:50:51.574Z,229.96
2023-03-30T23:54:06.441Z,216.45
2023-03-30T23:57:13.943Z,223.30
